Time;durP1;ratioP1;P1;durP2;ratioP2;P2;SDS_P1;SDS_P2;PMS_P1;PMS_P2;Temp;Humidity;BMP_temperature;BMP_pressure;BME280_temperature;BME280_humidity;BME280_pressure;Samples;Min_cycle;Max_cycle;Signal;HPM_P1;HPM_P2
2022/01/14 00:00:34;;;;;;;;;40.60;37.20;;;;;6.79;62.24;103212.22;2086089;28;47275;-65
2022/01/14 00:01:34;;;;;;;;;39.25;36.75;;;;;6.79;61.87;103206.97;2083195;28;47433;-66
2022/01/14 00:02:35;;;;;;;;;50.50;38.75;;;;;6.78;62.15;103205.16;2084853;28;47122;-66
2022/01/14 00:03:35;;;;;;;;;47.25;40.50;;;;;6.78;62.15;103197.25;2087842;28;46780;-66
2022/01/14 00:04:37;;;;;;;;;47.50;41.00;;;;;6.79;62.31;103199.03;2084651;28;47517;-65
2022/01/14 00:05:37;;;;;;;;;43.20;37.80;;;;;6.76;62.35;103202.47;2088205;28;47129;-65
2022/01/14 00:06:38;;;;;;;;;42.50;36.75;;;;;6.77;62.27;103206.00;2086517;28;45621;-65
2022/01/14 00:07:39;;;;;;;;;45.25;40.50;;;;;6.77;62.25;103200.72;2088244;28;47228;-66
2022/01/14 00:08:39;;;;;;;;;43.50;39.75;;;;;6.76;62.09;103194.56;2081704;28;47408;-66
2022/01/14 00:09:39;;;;;;;;;45.75;39.50;;;;;6.77;61.79;103192.81;2087831;28;47234;-65
2022/01/14 00:10:41;;;;;;;;;42.75;37.75;;;;;6.76;62.12;103197.19;2085481;28;47716;-66
2022/01/14 00:11:48;;;;;;;;;39.20;36.60;;;;;6.77;61.89;103195.47;2087988;28;47186;-64
2022/01/14 00:12:53;;;;;;;;;40.20;36.60;;;;;6.76;62.24;103191.91;2084765;28;47110;-67
2022/01/14 00:15:40;;;;;;;;;41.00;37.00;;;;;6.76;62.11;103197.19;2086848;28;47355;-65
2022/01/14 00:16:33;;;;;;;;;44.40;37.80;;;;;6.76;61.98;103193.66;2081623;28;47369;-63
2022/01/14 00:17:34;;;;;;;;;44.00;38.00;;;;;6.76;61.92;103191.03;2089874;28;47217;-65
2022/01/14 00:18:34;;;;;;;;;44.00;39.50;;;;;6.76;62.09;103183.09;2086820;28;47189;-66
2022/01/14 00:19:36;;;;;;;;;51.00;40.50;;;;;6.76;62.04;103188.38;2087813;28;47383;-62
2022/01/14 00:20:37;;;;;;;;;44.20;37.60;;;;;6.75;62.12;103195.41;2083202;28;47318;-64
2022/01/14 00:21:40;;;;;;;;;40.25;38.00;;;;;6.75;62.08;103189.22;2087791;28;46902;-64
2022/01/14 00:22:41;;;;;;;;;43.60;37.40;;;;;6.74;62.15;103184.81;2085272;28;46543;-64
2022/01/14 00:23:42;;;;;;;;;42.00;37.00;;;;;6.74;62.29;103190.97;2087578;28;48193;-64
2022/01/14 00:32:52;;;;;;;;;36.60;34.60;;;;;6.74;62.02;103193.63;2086676;28;46027;-65
2022/01/14 00:33:53;;;;;;;;;37.40;35.20;;;;;6.74;62.13;103195.38;2085364;28;48169;-65
2022/01/14 00:34:53;;;;;;;;;36.25;35.00;;;;;6.74;62.31;103190.09;2085801;28;47297;-65
2022/01/14 00:35:54;;;;;;;;;40.25;36.50;;;;;6.74;61.93;103187.44;2088064;28;47324;-64
2022/01/14 00:36:54;;;;;;;;;36.00;35.00;;;;;6.75;62.04;103191.88;2085972;28;47045;-64
2022/01/14 00:37:54;;;;;;;;;41.00;35.50;;;;;6.74;62.18;103198.00;2088048;28;47287;-65
2022/01/14 00:38:55;;;;;;;;;35.75;34.00;;;;;6.75;62.08;103197.16;2085180;28;47973;-64
2022/01/14 00:39:55;;;;;;;;;35.75;33.50;;;;;6.74;62.00;103190.09;2087853;28;47540;-65
2022/01/14 00:40:56;;;;;;;;;15.00;12.75;;;;;6.75;62.08;103197.16;2086520;28;48290;-64
2022/01/14 00:41:56;;;;;;;;;43.00;38.00;;;;;6.75;62.26;103198.06;2087434;28;45235;-61
2022/01/14 00:42:57;;;;;;;;;40.75;36.50;;;;;6.74;62.19;103196.25;2087051;28;47604;-64
2022/01/14 00:44:01;;;;;;;;;37.25;34.75;;;;;6.75;61.88;103194.50;2088208;28;47052;-65
2022/01/14 00:45:06;;;;;;;;;45.20;37.40;;;;;6.75;62.13;103198.06;2087334;28;48014;-64
2022/01/14 00:46:08;;;;;;;;;39.80;36.20;;;;;6.75;61.83;103192.78;2086701;28;47338;-65
2022/01/14 00:47:08;;;;;;;;;46.80;36.60;;;;;6.75;62.06;103189.22;2087527;28;48070;-63
2022/01/14 00:48:09;;;;;;;;;40.25;36.75;;;;;6.75;62.00;103187.50;2085911;28;47472;-65
2022/01/14 00:49:11;;;;;;;;;39.75;35.50;;;;;6.76;62.05;103184.00;2087548;28;47817;-64
2022/01/14 00:50:14;;;;;;;;;41.20;37.40;;;;;6.75;62.17;103184.84;2085819;28;48074;-63
2022/01/14 00:51:14;;;;;;;;;40.60;36.80;;;;;6.76;61.90;103180.47;2087745;28;47324;-65
2022/01/14 00:52:14;;;;;;;;;39.75;37.25;;;;;6.76;61.92;103180.47;2086328;28;45681;-63
2022/01/14 00:53:15;;;;;;;;;41.50;37.25;;;;;6.74;61.74;103175.16;2087743;28;47614;-63
2022/01/14 00:54:17;;;;;;;;;46.25;38.50;;;;;6.75;61.94;103184.84;2085888;28;47910;-66
2022/01/14 00:55:26;;;;;;;;;32.80;30.80;;;;;6.73;61.92;103176.00;2087043;28;47823;-65
2022/01/14 00:59:14;;;;;;;;;39.25;35.25;;;;;6.74;61.79;103171.59;2087116;28;47226;-64
2022/01/14 01:00:08;;;;;;;;;45.80;38.40;;;;;6.74;62.07;103180.41;2081824;28;47620;-65
2022/01/14 01:01:09;;;;;;;;;42.20;37.80;;;;;6.74;62.09;103172.50;2087068;28;47592;-64
2022/01/14 01:02:10;;;;;;;;;40.25;36.25;;;;;6.74;62.10;103169.88;2086655;28;47230;-64
2022/01/14 01:03:10;;;;;;;;;41.00;36.00;;;;;6.74;61.88;103175.16;2083869;28;47431;-64
2022/01/14 01:04:13;;;;;;;;;39.75;37.50;;;;;6.73;62.11;103176.00;2086705;28;47263;-65
2022/01/14 01:05:14;;;;;;;;;40.00;34.80;;;;;6.73;62.08;103172.44;2087334;28;47161;-64
2022/01/14 01:06:15;;;;;;;;;39.40;36.40;;;;;6.72;61.93;103174.16;2086013;28;47265;-65
2022/01/14 01:07:16;;;;;;;;;43.50;38.25;;;;;6.73;61.93;103173.34;2087172;28;47762;-64
2022/01/14 01:08:22;;;;;;;;;44.00;39.60;;;;;6.73;61.90;103172.44;2086092;28;47753;-64
2022/01/14 01:09:24;;;;;;;;;43.40;37.60;;;;;6.72;61.99;103174.16;2087375;28;47390;-64
2022/01/14 01:10:25;;;;;;;;;43.00;38.00;;;;;6.72;61.84;103171.53;2085510;28;46656;-64
2022/01/14 01:11:33;;;;;;;;;41.25;36.50;;;;;6.72;61.82;103171.53;2087398;28;48018;-63
2022/01/14 01:12:42;;;;;;;;;44.40;36.80;;;;;6.73;62.14;103170.72;2085848;28;46823;-64
2022/01/14 01:13:48;;;;;;;;;40.40;37.20;;;;;6.72;61.75;103168.00;2087518;28;47174;-64
2022/01/14 01:14:56;;;;;;;;;39.00;37.00;;;;;6.72;62.11;103175.91;2084604;28;46596;-64
2022/01/14 01:15:57;;;;;;;;;43.60;39.20;;;;;6.72;61.86;103179.44;2087325;28;48018;-62
2022/01/14 01:16:58;;;;;;;;;39.75;34.25;;;;;6.74;62.03;103179.53;2086586;28;46281;-62
2022/01/14 01:17:59;;;;;;;;;36.60;35.40;;;;;6.72;62.17;103176.81;2086720;28;48142;-61
2022/01/14 01:18:59;;;;;;;;;40.75;37.00;;;;;6.72;61.81;103184.72;2086650;28;49216;-64
2022/01/14 01:20:00;;;;;;;;;36.00;34.75;;;;;6.71;61.82;103174.13;2085352;28;47052;-63
2022/01/14 01:21:02;;;;;;;;;39.00;35.80;;;;;6.71;61.73;103188.22;2084470;28;48099;-62
2022/01/14 01:22:03;;;;;;;;;40.80;36.80;;;;;6.72;62.04;103183.81;2085956;28;48118;-64
2022/01/14 01:23:04;;;;;;;;;40.75;34.25;;;;;6.71;62.09;103180.28;2087179;28;47606;-63
2022/01/14 01:24:05;;;;;;;;;39.80;37.00;;;;;6.71;61.96;103184.69;2086054;28;47371;-64
2022/01/14 01:25:08;;;;;;;;;41.40;35.00;;;;;6.71;61.97;103182.03;2087083;28;46147;-64
2022/01/14 01:26:26;;;;;;;;;40.00;37.20;;;;;6.71;61.79;103184.69;2085841;28;47708;-63
2022/01/14 01:27:28;;;;;;;;;37.60;35.00;;;;;6.70;61.99;103181.16;2086235;28;47003;-62
2022/01/14 01:28:29;;;;;;;;;51.40;38.40;;;;;6.70;61.69;103185.53;2085899;28;47619;-64
2022/01/14 01:29:45;;;;;;;;;45.00;38.50;;;;;6.70;62.07;103182.88;2087582;28;45357;-64
2022/01/14 01:30:51;;;;;;;;;36.80;34.80;;;;;6.70;61.84;103182.88;2085929;28;47806;-64
2022/01/14 01:31:52;;;;;;;;;45.80;38.20;;;;;6.69;62.11;103184.63;2087506;28;47739;-64
2022/01/14 01:32:53;;;;;;;;;47.25;38.75;;;;;6.69;61.99;103174.06;2085816;28;47297;-65
2022/01/14 01:33:53;;;;;;;;;43.50;37.75;;;;;6.68;62.06;103172.28;2086134;28;47335;-63
2022/01/14 01:34:53;;;;;;;;;51.50;41.00;;;;;6.69;62.13;103175.81;2085424;28;47273;-63
2022/01/14 01:35:56;;;;;;;;;41.75;38.00;;;;;6.68;61.99;103168.75;2087733;28;47393;-65
2022/01/14 01:36:58;;;;;;;;;48.60;39.40;;;;;6.68;61.62;103176.66;2086800;28;47748;-63
2022/01/14 01:37:58;;;;;;;;;49.20;40.60;;;;;6.67;62.02;103170.50;2086860;28;47759;-63
2022/01/14 01:38:59;;;;;;;;;42.75;36.50;;;;;6.68;61.97;103174.03;2086915;28;47729;-63
2022/01/14 01:40:00;;;;;;;;;47.80;40.60;;;;;6.66;61.81;103166.06;2086129;28;47367;-63
2022/01/14 01:41:00;;;;;;;;;42.25;37.75;;;;;6.67;62.28;103169.59;2086155;28;45257;-64
2022/01/14 01:42:08;;;;;;;;;24.00;21.50;;;;;6.66;61.81;103173.97;2086513;28;47556;-63
2022/01/14 01:43:10;;;;;;;;;38.00;35.40;;;;;6.67;61.71;103174.88;2094392;28;47659;-64
2022/01/14 01:44:11;;;;;;;;;41.80;38.00;;;;;6.67;61.51;103169.59;2093452;28;47288;-64
2022/01/14 01:45:20;;;;;;;;;40.60;37.60;;;;;6.67;61.91;103172.25;2086839;28;48068;-63
2022/01/14 01:46:23;;;;;;;;;42.40;37.60;;;;;6.66;62.11;103175.72;2085778;28;48000;-64
2022/01/14 01:47:23;;;;;;;;;39.20;36.20;;;;;6.65;62.04;103174.81;2087406;28;47513;-65
2022/01/14 01:48:24;;;;;;;;;40.25;36.75;;;;;6.66;61.94;103175.72;2085495;28;47416;-63
2022/01/14 01:49:32;;;;;;;;;43.50;38.00;;;;;6.66;61.99;103173.09;2087150;28;47438;-64
2022/01/14 01:50:36;;;;;;;;;42.00;38.00;;;;;6.65;61.94;103180.09;2086095;28;47737;-64
2022/01/14 01:51:38;;;;;;;;;42.20;36.20;;;;;6.65;61.83;103182.75;2086572;28;47870;-64
2022/01/14 01:52:38;;;;;;;;;48.00;40.60;;;;;6.63;62.25;103181.81;2086124;28;47147;-63
2022/01/14 01:53:39;;;;;;;;;40.50;36.50;;;;;6.63;62.12;103184.44;2087537;28;47424;-64
2022/01/14 01:54:39;;;;;;;;;42.25;37.25;;;;;6.64;61.68;103180.06;2085435;28;47788;-64
2022/01/14 01:55:40;;;;;;;;;45.00;39.25;;;;;6.62;61.80;103179.13;2087088;28;46869;-64
2022/01/14 01:56:44;;;;;;;;;36.75;33.75;;;;;6.63;61.60;103186.19;2085711;28;47250;-64
2022/01/14 01:57:46;;;;;;;;;45.00;38.80;;;;;6.63;61.99;103180.91;2086526;28;47757;-66
2022/01/14 01:58:47;;;;;;;;;46.80;40.60;;;;;6.62;62.06;103177.38;2081918;28;47879;-65
2022/01/14 01:59:47;;;;;;;;;48.75;41.00;;;;;6.60;61.92;103173.75;2086738;28;47550;-65
2022/01/14 02:00:48;;;;;;;;;43.75;38.00;;;;;6.61;61.99;103174.69;2085594;28;47651;-64
2022/01/14 02:01:49;;;;;;;;;40.25;37.75;;;;;6.61;62.08;103178.22;2087001;28;47992;-65
2022/01/14 02:02:50;;;;;;;;;45.40;38.00;;;;;6.60;62.16;103171.13;2084980;28;47623;-63
2022/01/14 02:03:53;;;;;;;;;44.40;38.00;;;;;6.60;62.04;103176.41;2085699;28;47036;-64
2022/01/14 02:04:54;;;;;;;;;48.40;41.40;;;;;6.61;62.19;103179.97;2081197;28;47646;-66
2022/01/14 02:05:54;;;;;;;;;50.00;41.00;;;;;6.60;62.16;103178.13;2078884;28;47602;-65
2022/01/14 02:06:56;;;;;;;;;47.75;40.00;;;;;6.60;61.78;103176.41;2081893;28;47648;-64
2022/01/14 02:07:56;;;;;;;;;37.00;34.80;;;;;6.60;62.06;103175.50;2080834;28;47003;-64
2022/01/14 02:08:57;;;;;;;;;40.25;37.00;;;;;6.60;61.97;103168.47;2082992;28;48771;-65
2022/01/14 02:09:58;;;;;;;;;44.50;38.00;;;;;6.60;61.79;103173.75;2086425;28;47595;-63
2022/01/14 02:11:00;;;;;;;;;47.40;40.80;;;;;6.60;61.90;103165.84;2086793;28;47955;-65
2022/01/14 02:12:08;;;;;;;;;45.00;38.40;;;;;6.59;62.19;103166.69;2085706;28;45323;-65
2022/01/14 02:13:10;;;;;;;;;43.80;37.60;;;;;6.59;62.03;103171.06;2087104;28;47615;-64
2022/01/14 02:14:53;;;;;;;;;36.60;33.80;;;;;6.59;61.99;103158.78;2081979;28;47799;-66
2022/01/14 02:19:16;;;;;;;;;44.00;39.80;;;;;6.61;62.06;103148.31;2083814;28;47556;-65
2022/01/14 02:23:00;;;;;;;;;42.80;37.40;;;;;6.61;62.07;103148.31;2086033;28;47792;-65
2022/01/14 02:25:30;;;;;;;;;44.80;38.00;;;;;6.61;61.87;103146.56;2088144;28;47180;-63
2022/01/14 02:26:30;;;;;;;;;45.20;37.00;;;;;6.62;62.08;103155.38;2086524;28;47373;-64
2022/01/14 02:27:31;;;;;;;;;42.50;36.75;;;;;6.60;61.92;103152.66;2088637;28;47746;-66
2022/01/14 02:28:32;;;;;;;;;35.25;34.25;;;;;6.60;61.90;103152.66;2086899;28;47286;-65
2022/01/14 02:29:33;;;;;;;;;36.40;34.80;;;;;6.61;62.14;103148.31;2088368;28;47441;-66
2022/01/14 02:30:38;;;;;;;;;40.40;37.20;;;;;6.60;61.60;103151.75;2086935;28;47762;-66
2022/01/14 02:31:39;;;;;;;;;36.20;32.40;;;;;6.61;61.92;103148.31;2087507;28;46480;-65
2022/01/14 02:32:39;;;;;;;;;41.25;35.25;;;;;6.60;61.96;103154.38;2086809;28;45933;-65
2022/01/14 02:33:40;;;;;;;;;36.75;34.50;;;;;6.60;61.80;103151.75;2088587;28;47023;-65
2022/01/14 02:34:40;;;;;;;;;44.25;38.50;;;;;6.60;61.96;103146.47;2086783;28;47094;-64
2022/01/14 02:35:44;;;;;;;;;43.50;38.50;;;;;6.60;62.18;103151.75;2088055;28;47485;-64
2022/01/14 02:36:47;;;;;;;;;39.80;37.20;;;;;6.59;61.97;103148.22;2086312;28;47764;-62
2022/01/14 02:37:48;;;;;;;;;32.80;30.60;;;;;6.61;62.19;103143.03;2087805;28;47479;-64
2022/01/14 02:38:49;;;;;;;;;40.80;36.60;;;;;6.61;61.85;103148.31;2086413;28;46738;-65
2022/01/14 02:39:49;;;;;;;;;38.50;35.75;;;;;6.61;61.83;103135.09;2088754;28;47053;-63
2022/01/14 02:40:50;;;;;;;;;40.50;36.25;;;;;6.60;62.16;103136.81;2087141;28;47511;-63
2022/01/14 02:41:51;;;;;;;;;39.75;35.75;;;;;6.61;61.96;103138.66;2088448;28;47110;-65
2022/01/14 02:42:53;;;;;;;;;41.20;34.40;;;;;6.61;61.80;103140.38;2086617;28;48194;-64
2022/01/14 02:43:56;;;;;;;;;42.60;36.80;;;;;6.60;61.91;103134.19;2088724;28;47155;-64
2022/01/14 02:45:01;;;;;;;;;42.00;35.60;;;;;6.61;61.75;103145.66;2086288;28;47974;-65
2022/01/14 02:46:05;;;;;;;;;47.80;38.80;;;;;6.61;62.26;103143.91;2087491;28;47999;-64
2022/01/14 02:47:06;;;;;;;;;40.40;37.60;;;;;6.62;62.23;103145.72;2087264;28;47770;-64
2022/01/14 02:48:07;;;;;;;;;43.60;39.40;;;;;6.62;61.67;103143.06;2086839;28;47696;-64
2022/01/14 02:49:08;;;;;;;;;43.80;37.40;;;;;6.61;62.08;103138.66;2088089;28;47709;-63
2022/01/14 02:50:15;;;;;;;;;35.80;34.20;;;;;6.61;61.91;103133.38;2086855;28;47792;-65
2022/01/14 02:51:17;;;;;;;;;37.00;35.00;;;;;6.62;62.08;103136.91;2088028;28;47691;-64
2022/01/14 02:52:28;;;;;;;;;43.00;36.00;;;;;6.62;62.06;103135.16;2087143;28;47987;-64
2022/01/14 02:54:41;;;;;;;;;41.40;35.40;;;;;6.62;61.78;103134.25;2086834;28;47492;-65
2022/01/14 02:55:43;;;;;;;;;44.20;37.60;;;;;6.62;61.94;103127.25;2088349;28;47222;-65
2022/01/14 02:56:47;;;;;;;;;43.00;37.60;;;;;6.62;61.97;103129.88;2086106;28;47306;-65
2022/01/14 02:57:51;;;;;;;;;47.00;41.20;;;;;6.61;61.87;103125.44;2087497;28;47710;-66
2022/01/14 02:58:53;;;;;;;;;37.00;35.60;;;;;6.60;62.08;103115.72;2086590;28;47963;-66
2022/01/14 02:59:54;;;;;;;;;43.80;39.40;;;;;6.61;61.40;103124.56;2087880;28;47773;-64
2022/01/14 03:00:54;;;;;;;;;42.00;37.60;;;;;6.60;61.91;103117.47;2086722;28;47499;-65
2022/01/14 03:01:56;;;;;;;;;35.00;33.00;;;;;6.59;62.02;103121.84;2088463;28;46800;-63
2022/01/14 03:03:00;;;;;;;;;40.40;34.80;;;;;6.59;61.80;103124.47;2087041;28;47669;-64
2022/01/14 03:04:02;;;;;;;;;42.60;37.40;;;;;6.58;62.13;103122.69;2087297;28;45939;-64
2022/01/14 03:05:03;;;;;;;;;45.80;38.20;;;;;6.59;61.88;103119.19;2087232;28;47814;-65
2022/01/14 03:06:05;;;;;;;;;45.20;38.80;;;;;6.60;61.79;103125.38;2086461;28;48118;-67
2022/01/14 03:07:07;;;;;;;;;40.80;37.00;;;;;6.59;62.03;103121.84;2086974;28;48700;-64
2022/01/14 03:08:08;;;;;;;;;44.40;36.40;;;;;6.58;62.06;103121.78;2088077;28;47814;-65
2022/01/14 03:09:09;;;;;;;;;41.75;36.00;;;;;6.59;62.10;103121.84;2084483;28;47920;-63
2022/01/14 03:10:11;;;;;;;;;38.60;37.00;;;;;6.58;61.74;103125.31;2086780;28;47357;-65
2022/01/14 03:11:22;;;;;;;;;40.80;38.00;;;;;6.57;62.16;103118.25;2085010;28;47494;-61
2022/01/14 03:12:23;;;;;;;;;40.40;35.60;;;;;6.56;61.98;103116.47;2086519;28;47664;-65
2022/01/14 03:13:23;;;;;;;;;43.25;37.75;;;;;6.56;61.96;103113.84;2088170;28;47280;-65
2022/01/14 03:14:25;;;;;;;;;44.25;38.75;;;;;6.55;61.76;103101.50;2086096;28;45151;-66
2022/01/14 03:15:25;;;;;;;;;42.40;37.20;;;;;6.55;62.16;103103.22;2084085;28;47773;-66
2022/01/14 03:16:27;;;;;;;;;40.75;37.25;;;;;6.55;62.18;103101.50;2085702;28;47966;-65
2022/01/14 03:17:28;;;;;;;;;45.20;38.40;;;;;6.55;62.17;103100.59;2092330;28;47351;-63
2022/01/14 03:18:47;;;;;;;;;39.60;37.20;;;;;6.56;61.87;103095.38;2090208;28;47777;-66
2022/01/14 03:19:48;;;;;;;;;46.80;39.40;;;;;6.56;62.03;103095.38;2080955;28;47528;-65
2022/01/14 03:20:50;;;;;;;;;43.00;39.40;;;;;6.55;61.81;103098.84;2087058;28;48076;-66
2022/01/14 03:21:56;;;;;;;;;43.60;39.00;;;;;6.56;62.00;103098.00;2085646;28;48074;-65
2022/01/14 03:23:05;;;;;;;;;53.80;43.20;;;;;6.56;61.70;103099.75;2086199;28;49515;-67
2022/01/14 03:25:35;;;;;;;;;48.60;41.60;;;;;6.57;61.81;103096.25;2087177;28;47330;-65
2022/01/14 03:25:48;;;;;;;;;47.40;40.00;;;;;6.56;62.16;103099.75;2086804;28;47364;-66
2022/01/14 03:26:51;;;;;;;;;47.60;42.00;;;;;6.56;62.13;103099.75;2086218;28;47333;-60
2022/01/14 03:27:53;;;;;;;;;41.80;37.20;;;;;6.55;61.74;103097.97;2088123;28;47369;-65
2022/01/14 03:28:54;;;;;;;;;43.60;38.40;;;;;6.56;62.05;103097.09;2086324;28;47239;-65
2022/01/14 03:29:54;;;;;;;;;46.50;40.75;;;;;6.56;62.03;103099.75;2088024;28;48356;-65
2022/01/14 03:30:55;;;;;;;;;45.75;38.00;;;;;6.55;61.81;103095.31;2086591;28;47231;-65
2022/01/14 03:31:55;;;;;;;;;48.75;40.25;;;;;6.56;61.84;103102.38;2088310;28;47780;-64
2022/01/14 03:32:56;;;;;;;;;50.50;42.00;;;;;6.57;61.50;103098.91;2085866;28;47486;-65
2022/01/14 03:33:56;;;;;;;;;42.50;37.75;;;;;6.55;61.71;103096.22;2088230;28;47021;-66
2022/01/14 03:34:56;;;;;;;;;43.75;39.75;;;;;6.56;61.96;103095.38;2086792;28;47653;-65
2022/01/14 03:35:57;;;;;;;;;42.00;36.75;;;;;6.55;61.33;103100.59;2087577;28;47728;-64
2022/01/14 03:36:58;;;;;;;;;49.00;41.00;;;;;6.55;61.64;103100.59;2086999;28;47675;-65
2022/01/14 03:37:59;;;;;;;;;43.80;38.00;;;;;6.54;62.04;103097.06;2086867;28;47423;-66
2022/01/14 03:38:59;;;;;;;;;41.75;38.00;;;;;6.53;61.99;103092.63;2086764;28;47106;-68
2022/01/14 03:40:00;;;;;;;;;40.75;37.50;;;;;6.55;61.78;103092.69;2086507;28;47493;-64
2022/01/14 03:41:01;;;;;;;;;45.20;38.00;;;;;6.53;61.72;103095.28;2086636;28;47392;-63
2022/01/14 03:42:03;;;;;;;;;43.80;37.80;;;;;6.53;61.78;103094.38;2078951;28;47502;-64
2022/01/14 03:43:04;;;;;;;;;41.00;38.00;;;;;6.53;61.82;103099.66;2087716;28;47858;-64
2022/01/14 03:44:04;;;;;;;;;36.00;34.00;;;;;6.52;62.06;103098.75;2086143;28;46771;-64
2022/01/14 03:45:05;;;;;;;;;35.00;34.00;;;;;6.53;61.63;103104.94;2086575;28;47092;-64
2022/01/14 03:46:06;;;;;;;;;38.50;35.75;;;;;6.52;61.99;103100.50;2086406;28;46938;-64
2022/01/14 03:47:06;;;;;;;;;38.25;33.50;;;;;6.50;61.72;103100.47;2087674;28;47669;-64
2022/01/14 03:48:07;;;;;;;;;41.50;35.00;;;;;6.50;61.88;103097.81;2086450;28;47397;-64
2022/01/14 03:49:07;;;;;;;;;40.50;37.00;;;;;6.49;61.85;103103.94;2088006;28;47350;-64
2022/01/14 03:50:08;;;;;;;;;41.25;36.25;;;;;6.49;61.88;103110.09;2086304;28;47183;-64
2022/01/14 03:51:09;;;;;;;;;45.00;39.00;;;;;6.48;61.86;103100.41;2087805;28;47230;-66
2022/01/14 03:52:10;;;;;;;;;43.50;38.50;;;;;6.48;61.59;103102.16;2088114;28;48037;-63
2022/01/14 03:53:11;;;;;;;;;39.75;36.50;;;;;6.47;61.80;103103.84;2086844;28;47547;-62
2022/01/14 03:54:12;;;;;;;;;43.80;37.80;;;;;6.49;61.66;103101.31;2087944;28;47760;-64
2022/01/14 03:55:12;;;;;;;;;46.00;39.50;;;;;6.46;61.69;103096.78;2088155;28;47572;-64
2022/01/14 03:56:13;;;;;;;;;44.75;36.75;;;;;6.46;61.60;103099.44;2087354;28;47182;-63
2022/01/14 03:57:14;;;;;;;;;38.80;36.80;;;;;6.45;61.91;103102.91;2087582;28;48057;-65
2022/01/14 03:58:15;;;;;;;;;46.50;38.00;;;;;6.45;62.10;103102.91;2087591;28;47613;-64
2022/01/14 03:59:15;;;;;;;;;36.50;35.25;;;;;6.44;61.49;103101.13;2087719;28;47710;-64
2022/01/14 04:00:17;;;;;;;;;53.00;40.50;;;;;6.45;61.80;103102.03;2088085;28;47659;-64
2022/01/14 04:01:19;;;;;;;;;43.60;37.60;;;;;6.43;61.82;103096.69;2088139;28;47167;-65
2022/01/14 04:02:20;;;;;;;;;44.00;37.60;;;;;6.43;61.50;103091.44;2088054;28;47807;-65
2022/01/14 04:03:20;;;;;;;;;44.00;38.00;;;;;6.43;61.56;103087.91;2088007;28;47361;-67
2022/01/14 04:04:21;;;;;;;;;48.25;41.50;;;;;6.44;62.16;103092.31;2087072;28;47570;-64
2022/01/14 04:05:21;;;;;;;;;41.25;37.75;;;;;6.42;61.67;103087.00;2088237;28;47217;-66
2022/01/14 04:06:22;;;;;;;;;45.00;38.75;;;;;6.43;61.54;103090.53;2088071;28;47596;-64
2022/01/14 04:07:22;;;;;;;;;41.75;37.25;;;;;6.43;61.72;103091.44;2088377;28;47545;-65
2022/01/14 04:08:22;;;;;;;;;43.25;39.00;;;;;6.43;62.06;103087.91;2087575;28;47446;-63
2022/01/14 04:09:23;;;;;;;;;47.00;39.50;;;;;6.42;61.73;103091.38;2088193;28;46901;-63
2022/01/14 04:10:25;;;;;;;;;47.50;38.50;;;;;6.42;61.80;103094.91;2088219;28;47568;-64
2022/01/14 04:11:26;;;;;;;;;52.20;41.00;;;;;6.40;61.55;103093.97;2087480;28;47091;-63
2022/01/14 04:12:50;;;;;;;;;48.00;38.80;;;;;6.39;61.48;103092.19;2087910;28;47925;-65
2022/01/14 04:13:53;;;;;;;;;41.20;37.60;;;;;6.38;62.28;103095.66;2087692;28;47761;-62
2022/01/14 04:15:54;;;;;;;;;41.25;37.75;;;;;6.39;61.84;103097.44;2087991;28;48116;-65
2022/01/14 04:16:57;;;;;;;;;40.25;36.75;;;;;6.37;61.51;103093.88;2087836;28;47563;-63
2022/01/14 04:17:59;;;;;;;;;42.80;37.60;;;;;6.37;61.75;103096.50;2090142;28;47417;-65
2022/01/14 04:19:00;;;;;;;;;32.00;32.00;;;;;6.37;61.83;103092.97;2087809;28;47806;-63
2022/01/14 04:20:00;;;;;;;;;41.00;36.25;;;;;6.35;61.89;103094.63;2087530;28;47178;-63
2022/01/14 04:21:01;;;;;;;;;32.75;32.75;;;;;6.36;61.73;103089.44;2084791;28;46916;-65
2022/01/14 04:22:02;;;;;;;;;45.00;40.00;;;;;6.36;61.65;103091.19;2079272;28;47041;-65
2022/01/14 04:23:07;;;;;;;;;43.00;37.60;;;;;6.35;61.85;103087.66;2087062;28;47433;-63
2022/01/14 04:24:08;;;;;;;;;42.80;38.20;;;;;6.34;61.99;103091.09;2086252;28;47342;-64
2022/01/14 04:25:08;;;;;;;;;43.00;38.25;;;;;6.35;61.70;103095.56;2087617;28;47182;-64
2022/01/14 04:26:10;;;;;;;;;43.00;36.50;;;;;6.34;61.79;103093.75;2088008;28;47287;-64
2022/01/14 04:27:10;;;;;;;;;39.80;36.60;;;;;6.36;61.65;103093.81;2087312;28;47608;-65
2022/01/14 04:28:11;;;;;;;;;43.50;37.50;;;;;6.36;61.79;103093.81;2087807;28;47704;-63
2022/01/14 04:29:12;;;;;;;;;38.50;36.75;;;;;6.34;61.85;103093.75;2087486;28;47009;-65
2022/01/14 04:30:13;;;;;;;;;44.75;39.75;;;;;6.34;61.83;103099.03;2088091;28;47556;-64
2022/01/14 04:31:13;;;;;;;;;45.40;39.60;;;;;6.34;61.65;103096.38;2087944;28;47816;-66
2022/01/14 04:32:14;;;;;;;;;47.75;39.25;;;;;6.33;61.57;103093.69;2088029;28;47519;-64
2022/01/14 04:33:14;;;;;;;;;48.00;41.50;;;;;6.33;61.62;103091.06;2088113;28;48187;-63
2022/01/14 04:34:16;;;;;;;;;43.75;39.00;;;;;6.32;61.98;103091.91;2088117;28;47858;-64
2022/01/14 04:35:17;;;;;;;;;39.20;36.60;;;;;6.32;61.60;103086.63;2087214;28;46884;-64
2022/01/14 04:36:17;;;;;;;;;44.60;37.80;;;;;6.32;62.16;103086.63;2087451;28;47252;-63
2022/01/14 04:37:22;;;;;;;;;41.75;38.00;;;;;6.33;61.69;103085.78;2087789;28;47172;-64
2022/01/14 04:38:22;;;;;;;;;44.00;36.40;;;;;6.32;61.80;103081.34;2087847;28;47600;-64
2022/01/14 04:39:23;;;;;;;;;45.25;39.75;;;;;6.31;61.54;103077.81;2087936;28;47812;-63
2022/01/14 04:40:23;;;;;;;;;50.00;40.25;;;;;6.30;61.96;103078.69;2088113;28;47164;-62
2022/01/14 04:41:24;;;;;;;;;40.50;37.25;;;;;6.32;62.05;103076.09;2087661;28;47632;-63
2022/01/14 04:42:26;;;;;;;;;44.00;37.50;;;;;6.31;61.55;103071.66;2087147;28;47283;-64
2022/01/14 04:43:29;;;;;;;;;40.40;37.40;;;;;6.30;61.60;103065.50;2087274;28;47416;-64
2022/01/14 04:44:29;;;;;;;;;48.40;38.00;;;;;6.30;61.69;103068.13;2088198;28;47319;-64
2022/01/14 04:47:45;;;;;;;;;48.00;39.75;;;;;6.30;61.93;103069.88;2087318;28;46748;-64
2022/01/14 04:48:45;;;;;;;;;51.40;42.00;;;;;6.30;61.91;103069.88;2087301;28;47801;-64
2022/01/14 04:49:46;;;;;;;;;47.00;40.75;;;;;6.30;62.05;103069.88;2087185;28;47110;-63
2022/01/14 04:50:46;;;;;;;;;47.25;41.25;;;;;6.31;62.05;103074.28;2087738;28;47516;-64
2022/01/14 04:51:47;;;;;;;;;43.00;37.50;;;;;6.30;61.87;103069.88;2087353;28;47720;-64
2022/01/14 04:52:48;;;;;;;;;51.50;40.75;;;;;6.30;61.82;103076.03;2079053;28;47724;-64
2022/01/14 04:53:49;;;;;;;;;46.40;39.80;;;;;6.29;61.77;103065.44;2087349;28;46406;-64
2022/01/14 04:54:49;;;;;;;;;39.00;34.25;;;;;6.29;62.13;103071.63;2087731;28;47003;-65
2022/01/14 04:55:50;;;;;;;;;42.25;38.50;;;;;6.29;62.07;103068.09;2087826;28;45222;-63
2022/01/14 04:56:51;;;;;;;;;46.20;38.80;;;;;6.28;61.48;103061.91;2087305;28;47185;-63
2022/01/14 04:57:53;;;;;;;;;45.25;41.00;;;;;6.28;62.02;103066.28;2087495;28;47740;-64
2022/01/14 04:58:54;;;;;;;;;46.00;39.80;;;;;6.28;61.73;103059.28;2086754;28;48021;-65
2022/01/14 04:59:54;;;;;;;;;49.75;41.00;;;;;6.29;61.90;103060.16;2087835;28;45119;-65
2022/01/14 05:00:55;;;;;;;;;53.75;43.25;;;;;6.29;61.99;103060.16;2087750;28;47701;-65
2022/01/14 05:01:57;;;;;;;;;47.60;40.60;;;;;6.28;61.67;103056.63;2087436;28;47712;-66
2022/01/14 05:02:58;;;;;;;;;39.80;36.20;;;;;6.29;61.86;103055.78;2084750;28;47538;-65
2022/01/14 05:03:59;;;;;;;;;45.25;38.25;;;;;6.29;62.17;103053.16;2086990;28;45442;-65
2022/01/14 05:05:00;;;;;;;;;38.60;36.80;;;;;6.29;61.91;103049.63;2085396;28;46883;-67
2022/01/14 05:06:02;;;;;;;;;51.60;41.20;;;;;6.30;61.95;103054.06;2083811;28;46692;-64
2022/01/14 05:07:03;;;;;;;;;46.00;40.80;;;;;6.29;61.87;103047.88;2087494;28;45546;-65
2022/01/14 05:08:09;;;;;;;;;47.80;39.80;;;;;6.29;61.79;103052.25;2087686;28;45702;-64
2022/01/14 05:09:19;;;;;;;;;44.60;38.80;;;;;6.28;62.03;103043.44;2087032;28;47323;-64
2022/01/14 05:11:39;;;;;;;;;50.80;41.40;;;;;6.29;61.77;103054.91;2086490;28;45620;-65